sensor_id;sensor_type;location;lat;lon;timestamp;temperature;humidity
15111;DHT22;7656;51.954;7.998;2024-03-06T00:03:01;8.60;99.90
15111;DHT22;7656;51.954;7.998;2024-03-06T00:07:22;8.50;99.90
15111;DHT22;7656;51.954;7.998;2024-03-06T00:11:43;8.60;99.90
15111;DHT22;7656;51.954;7.998;2024-03-06T00:16:05;8.70;99.90
15111;DHT22;7656;51.954;7.998;2024-03-06T00:20:26;8.70;99.90
15111;DHT22;7656;51.954;7.998;2024-03-06T00:24:47;8.80;99.90
15111;DHT22;7656;51.954;7.998;2024-03-06T00:29:09;8.80;99.90
15111;DHT22;7656;51.954;7.998;2024-03-06T00:33:30;8.70;99.90
15111;DHT22;7656;51.954;7.998;2024-03-06T00:37:52;8.70;99.90
15111;DHT22;7656;51.954;7.998;2024-03-06T00:42:14;8.70;99.90
15111;DHT22;7656;51.954;7.998;2024-03-06T00:46:35;8.70;99.90
15111;DHT22;7656;51.954;7.998;2024-03-06T00:50:56;8.50;99.90
15111;DHT22;7656;51.954;7.998;2024-03-06T00:55:17;8.50;99.90
15111;DHT22;7656;51.954;7.998;2024-03-06T00:59:38;8.60;99.90
15111;DHT22;7656;51.954;7.998;2024-03-06T01:03:59;8.70;99.90
15111;DHT22;7656;51.954;7.998;2024-03-06T01:08:22;8.70;99.90
15111;DHT22;7656;51.954;7.998;2024-03-06T01:12:45;8.60;99.90
15111;DHT22;7656;51.954;7.998;2024-03-06T01:17:06;8.60;99.90
15111;DHT22;7656;51.954;7.998;2024-03-06T01:21:27;8.50;99.90
15111;DHT22;7656;51.954;7.998;2024-03-06T01:25:49;8.60;99.90
15111;DHT22;7656;51.954;7.998;2024-03-06T01:30:11;8.70;99.90
15111;DHT22;7656;51.954;7.998;2024-03-06T01:34:32;8.70;99.90
15111;DHT22;7656;51.954;7.998;2024-03-06T01:38:53;8.70;99.90
15111;DHT22;7656;51.954;7.998;2024-03-06T01:43:19;8.70;99.90
15111;DHT22;7656;51.954;7.998;2024-03-06T01:47:41;8.80;99.90
15111;DHT22;7656;51.954;7.998;2024-03-06T01:52:03;8.90;99.90
15111;DHT22;7656;51.954;7.998;2024-03-06T01:56:24;8.90;99.90
15111;DHT22;7656;51.954;7.998;2024-03-06T02:00:46;8.90;99.90
15111;DHT22;7656;51.954;7.998;2024-03-06T02:05:08;8.90;99.90
15111;DHT22;7656;51.954;7.998;2024-03-06T02:09:29;8.90;99.90
15111;DHT22;7656;51.954;7.998;2024-03-06T02:13:50;8.90;99.90
15111;DHT22;7656;51.954;7.998;2024-03-06T02:18:11;8.90;99.90
15111;DHT22;7656;51.954;7.998;2024-03-06T02:22:33;8.90;99.90
15111;DHT22;7656;51.954;7.998;2024-03-06T02:26:54;8.90;99.90
15111;DHT22;7656;51.954;7.998;2024-03-06T02:31:17;8.90;99.90
15111;DHT22;7656;51.954;7.998;2024-03-06T02:35:39;8.90;99.90
15111;DHT22;7656;51.954;7.998;2024-03-06T02:40:00;8.90;99.90
15111;DHT22;7656;51.954;7.998;2024-03-06T02:44:21;8.90;99.90
15111;DHT22;7656;51.954;7.998;2024-03-06T02:48:43;8.90;99.90
15111;DHT22;7656;51.954;7.998;2024-03-06T02:53:04;8.80;99.90
15111;DHT22;7656;51.954;7.998;2024-03-06T02:57:28;8.90;99.90
15111;DHT22;7656;51.954;7.998;2024-03-06T03:01:49;8.80;99.90
15111;DHT22;7656;51.954;7.998;2024-03-06T03:06:10;8.80;99.90
15111;DHT22;7656;51.954;7.998;2024-03-06T03:10:31;8.90;99.90
15111;DHT22;7656;51.954;7.998;2024-03-06T03:14:55;8.90;99.90
15111;DHT22;7656;51.954;7.998;2024-03-06T03:19:16;8.90;99.90
15111;DHT22;7656;51.954;7.998;2024-03-06T03:23:37;8.90;99.90
15111;DHT22;7656;51.954;7.998;2024-03-06T03:27:58;8.90;99.90
15111;DHT22;7656;51.954;7.998;2024-03-06T03:32:19;8.90;99.90
15111;DHT22;7656;51.954;7.998;2024-03-06T03:36:43;8.90;99.90
15111;DHT22;7656;51.954;7.998;2024-03-06T03:41:11;9.00;99.90
15111;DHT22;7656;51.954;7.998;2024-03-06T03:45:33;9.00;99.90
15111;DHT22;7656;51.954;7.998;2024-03-06T03:49:54;9.00;99.90
15111;DHT22;7656;51.954;7.998;2024-03-06T03:54:15;9.00;99.90
15111;DHT22;7656;51.954;7.998;2024-03-06T03:58:37;9.00;99.90
15111;DHT22;7656;51.954;7.998;2024-03-06T04:02:58;8.90;99.90
15111;DHT22;7656;51.954;7.998;2024-03-06T04:07:20;8.90;99.90
15111;DHT22;7656;51.954;7.998;2024-03-06T04:11:41;8.80;99.90
15111;DHT22;7656;51.954;7.998;2024-03-06T04:16:03;8.80;99.90
15111;DHT22;7656;51.954;7.998;2024-03-06T04:20:24;8.90;99.90
15111;DHT22;7656;51.954;7.998;2024-03-06T04:24:45;8.90;99.90
15111;DHT22;7656;51.954;7.998;2024-03-06T04:29:06;8.90;99.90
15111;DHT22;7656;51.954;7.998;2024-03-06T04:33:27;8.80;99.90
15111;DHT22;7656;51.954;7.998;2024-03-06T04:37:49;8.80;99.90
15111;DHT22;7656;51.954;7.998;2024-03-06T04:42:10;8.80;99.90
15111;DHT22;7656;51.954;7.998;2024-03-06T04:46:31;8.80;99.90
15111;DHT22;7656;51.954;7.998;2024-03-06T04:50:52;8.80;99.90
15111;DHT22;7656;51.954;7.998;2024-03-06T04:55:13;8.70;99.90
15111;DHT22;7656;51.954;7.998;2024-03-06T04:59:43;8.50;99.90
15111;DHT22;7656;51.954;7.998;2024-03-06T05:04:04;8.50;99.90
15111;DHT22;7656;51.954;7.998;2024-03-06T05:08:25;8.60;99.90
15111;DHT22;7656;51.954;7.998;2024-03-06T05:12:46;8.60;99.90
15111;DHT22;7656;51.954;7.998;2024-03-06T05:17:07;8.70;99.90
15111;DHT22;7656;51.954;7.998;2024-03-06T05:21:33;8.70;99.90
15111;DHT22;7656;51.954;7.998;2024-03-06T05:25:54;8.70;99.90
15111;DHT22;7656;51.954;7.998;2024-03-06T05:30:15;8.20;99.90
15111;DHT22;7656;51.954;7.998;2024-03-06T05:34:36;7.90;99.90
15111;DHT22;7656;51.954;7.998;2024-03-06T05:38:57;8.00;99.90
15111;DHT22;7656;51.954;7.998;2024-03-06T05:43:18;8.20;99.90
15111;DHT22;7656;51.954;7.998;2024-03-06T05:47:39;8.10;99.90
15111;DHT22;7656;51.954;7.998;2024-03-06T05:52:03;7.90;99.90
15111;DHT22;7656;51.954;7.998;2024-03-06T05:56:24;8.20;99.90
15111;DHT22;7656;51.954;7.998;2024-03-06T06:00:46;8.40;99.90
15111;DHT22;7656;51.954;7.998;2024-03-06T06:05:07;8.20;99.90
15111;DHT22;7656;51.954;7.998;2024-03-06T06:09:29;8.10;99.90
15111;DHT22;7656;51.954;7.998;2024-03-06T06:13:50;8.20;99.90
15111;DHT22;7656;51.954;7.998;2024-03-06T06:18:11;8.40;99.90
15111;DHT22;7656;51.954;7.998;2024-03-06T06:22:32;8.00;99.90
15111;DHT22;7656;51.954;7.998;2024-03-06T06:26:53;7.60;99.90
15111;DHT22;7656;51.954;7.998;2024-03-06T06:31:14;7.60;99.90
15111;DHT22;7656;51.954;7.998;2024-03-06T06:35:35;7.90;99.90
15111;DHT22;7656;51.954;7.998;2024-03-06T06:39:57;8.00;99.90
15111;DHT22;7656;51.954;7.998;2024-03-06T06:44:18;8.10;99.90
15111;DHT22;7656;51.954;7.998;2024-03-06T06:48:39;8.40;99.90
15111;DHT22;7656;51.954;7.998;2024-03-06T06:53:00;8.50;99.90
15111;DHT22;7656;51.954;7.998;2024-03-06T06:57:21;8.40;99.90
15111;DHT22;7656;51.954;7.998;2024-03-06T07:01:42;8.00;99.90
15111;DHT22;7656;51.954;7.998;2024-03-06T07:06:04;8.30;99.90
15111;DHT22;7656;51.954;7.998;2024-03-06T07:10:25;8.50;99.90
15111;DHT22;7656;51.954;7.998;2024-03-06T07:14:47;8.70;99.90
15111;DHT22;7656;51.954;7.998;2024-03-06T07:19:08;8.60;99.90
15111;DHT22;7656;51.954;7.998;2024-03-06T07:23:29;8.70;99.90
15111;DHT22;7656;51.954;7.998;2024-03-06T07:27:50;8.90;99.90
15111;DHT22;7656;51.954;7.998;2024-03-06T07:32:11;8.90;99.90
15111;DHT22;7656;51.954;7.998;2024-03-06T07:36:32;9.00;99.90
15111;DHT22;7656;51.954;7.998;2024-03-06T07:40:54;9.10;99.90
15111;DHT22;7656;51.954;7.998;2024-03-06T07:45:15;9.10;99.90
15111;DHT22;7656;51.954;7.998;2024-03-06T07:49:36;9.20;99.90
15111;DHT22;7656;51.954;7.998;2024-03-06T07:53:57;9.30;99.90
15111;DHT22;7656;51.954;7.998;2024-03-06T07:58:19;9.30;99.90
15111;DHT22;7656;51.954;7.998;2024-03-06T08:02:42;9.40;99.90
15111;DHT22;7656;51.954;7.998;2024-03-06T08:07:10;9.40;99.90
15111;DHT22;7656;51.954;7.998;2024-03-06T08:11:31;9.40;99.90
15111;DHT22;7656;51.954;7.998;2024-03-06T08:15:52;9.50;99.90
15111;DHT22;7656;51.954;7.998;2024-03-06T08:20:14;9.50;99.90
15111;DHT22;7656;51.954;7.998;2024-03-06T08:24:35;9.40;99.90
15111;DHT22;7656;51.954;7.998;2024-03-06T08:28:56;9.50;99.90
15111;DHT22;7656;51.954;7.998;2024-03-06T08:33:17;9.50;99.90
15111;DHT22;7656;51.954;7.998;2024-03-06T08:37:39;9.60;99.90
15111;DHT22;7656;51.954;7.998;2024-03-06T08:42:00;9.60;99.90
15111;DHT22;7656;51.954;7.998;2024-03-06T08:46:23;9.60;99.90
15111;DHT22;7656;51.954;7.998;2024-03-06T08:50:45;9.70;99.90
15111;DHT22;7656;51.954;7.998;2024-03-06T08:55:07;9.70;99.90
15111;DHT22;7656;51.954;7.998;2024-03-06T08:59:29;9.70;99.90
15111;DHT22;7656;51.954;7.998;2024-03-06T09:03:50;9.20;99.90
15111;DHT22;7656;51.954;7.998;2024-03-06T09:08:12;9.50;99.90
15111;DHT22;7656;51.954;7.998;2024-03-06T09:12:33;9.70;99.90
15111;DHT22;7656;51.954;7.998;2024-03-06T09:16:54;9.80;99.90
15111;DHT22;7656;51.954;7.998;2024-03-06T09:21:16;9.70;99.90
15111;DHT22;7656;51.954;7.998;2024-03-06T09:25:37;9.70;99.90
15111;DHT22;7656;51.954;7.998;2024-03-06T09:29:58;10.10;99.90
15111;DHT22;7656;51.954;7.998;2024-03-06T09:34:20;10.30;99.90
15111;DHT22;7656;51.954;7.998;2024-03-06T09:38:42;10.00;99.90
15111;DHT22;7656;51.954;7.998;2024-03-06T09:43:03;9.30;99.90
15111;DHT22;7656;51.954;7.998;2024-03-06T09:47:25;9.60;99.90
15111;DHT22;7656;51.954;7.998;2024-03-06T09:51:49;10.30;99.90
15111;DHT22;7656;51.954;7.998;2024-03-06T09:56:10;10.70;99.90
15111;DHT22;7656;51.954;7.998;2024-03-06T10:00:32;11.10;99.90
15111;DHT22;7656;51.954;7.998;2024-03-06T10:04:53;11.10;99.90
15111;DHT22;7656;51.954;7.998;2024-03-06T10:09:18;11.30;99.90
15111;DHT22;7656;51.954;7.998;2024-03-06T10:13:39;11.00;99.90
15111;DHT22;7656;51.954;7.998;2024-03-06T10:18:11;10.70;99.90
15111;DHT22;7656;51.954;7.998;2024-03-06T10:22:35;10.90;99.90
15111;DHT22;7656;51.954;7.998;2024-03-06T10:26:57;10.50;99.90
15111;DHT22;7656;51.954;7.998;2024-03-06T10:31:27;10.90;99.90
15111;DHT22;7656;51.954;7.998;2024-03-06T10:35:49;11.60;99.90
15111;DHT22;7656;51.954;7.998;2024-03-06T10:40:14;12.30;99.90
15111;DHT22;7656;51.954;7.998;2024-03-06T10:44:36;12.30;99.90
15111;DHT22;7656;51.954;7.998;2024-03-06T10:49:09;13.00;99.90
15111;DHT22;7656;51.954;7.998;2024-03-06T12:52:27;14.40;99.90
15111;DHT22;7656;51.954;7.998;2024-03-06T12:56:48;14.20;99.90
15111;DHT22;7656;51.954;7.998;2024-03-06T13:01:09;14.20;99.90
15111;DHT22;7656;51.954;7.998;2024-03-06T13:05:31;14.20;99.90
15111;DHT22;7656;51.954;7.998;2024-03-06T13:09:52;14.30;99.90
15111;DHT22;7656;51.954;7.998;2024-03-06T13:14:13;14.60;99.90
15111;DHT22;7656;51.954;7.998;2024-03-06T13:18:34;15.00;99.90
15111;DHT22;7656;51.954;7.998;2024-03-06T13:22:55;15.10;99.90
15111;DHT22;7656;51.954;7.998;2024-03-06T13:27:17;15.10;99.90
15111;DHT22;7656;51.954;7.998;2024-03-06T13:31:38;15.10;99.90
15111;DHT22;7656;51.954;7.998;2024-03-06T13:35:59;15.00;99.90
15111;DHT22;7656;51.954;7.998;2024-03-06T13:40:21;14.60;99.90
15111;DHT22;7656;51.954;7.998;2024-03-06T13:44:42;14.50;99.90
15111;DHT22;7656;51.954;7.998;2024-03-06T13:49:03;14.30;99.90
15111;DHT22;7656;51.954;7.998;2024-03-06T13:53:24;14.30;99.90
15111;DHT22;7656;51.954;7.998;2024-03-06T13:57:45;14.50;99.90
15111;DHT22;7656;51.954;7.998;2024-03-06T14:02:08;14.20;99.90
15111;DHT22;7656;51.954;7.998;2024-03-06T14:06:29;14.20;99.90
15111;DHT22;7656;51.954;7.998;2024-03-06T14:10:51;14.30;99.90
15111;DHT22;7656;51.954;7.998;2024-03-06T14:15:12;14.40;99.90
15111;DHT22;7656;51.954;7.998;2024-03-06T14:19:33;14.60;99.90
15111;DHT22;7656;51.954;7.998;2024-03-06T14:23:54;14.60;99.90
15111;DHT22;7656;51.954;7.998;2024-03-06T14:28:15;14.50;99.90
15111;DHT22;7656;51.954;7.998;2024-03-06T14:32:36;14.60;99.90
15111;DHT22;7656;51.954;7.998;2024-03-06T14:36:57;14.40;99.90
15111;DHT22;7656;51.954;7.998;2024-03-06T14:41:19;14.40;99.90
15111;DHT22;7656;51.954;7.998;2024-03-06T14:45:41;14.30;99.90
15111;DHT22;7656;51.954;7.998;2024-03-06T14:50:03;14.00;99.90
15111;DHT22;7656;51.954;7.998;2024-03-06T14:54:24;13.80;99.90
15111;DHT22;7656;51.954;7.998;2024-03-06T14:58:46;13.60;99.90
15111;DHT22;7656;51.954;7.998;2024-03-06T15:03:07;13.60;99.90
15111;DHT22;7656;51.954;7.998;2024-03-06T15:07:28;13.50;99.90
15111;DHT22;7656;51.954;7.998;2024-03-06T15:11:49;13.80;99.90
15111;DHT22;7656;51.954;7.998;2024-03-06T15:16:12;14.10;99.90
15111;DHT22;7656;51.954;7.998;2024-03-06T15:20:34;14.20;99.90
15111;DHT22;7656;51.954;7.998;2024-03-06T15:24:55;14.40;99.90
15111;DHT22;7656;51.954;7.998;2024-03-06T15:29:16;14.10;99.90
15111;DHT22;7656;51.954;7.998;2024-03-06T15:33:37;14.00;99.90
15111;DHT22;7656;51.954;7.998;2024-03-06T15:37:58;13.90;99.90
15111;DHT22;7656;51.954;7.998;2024-03-06T15:42:23;13.90;99.90
15111;DHT22;7656;51.954;7.998;2024-03-06T15:46:45;13.80;99.90
15111;DHT22;7656;51.954;7.998;2024-03-06T15:51:07;14.00;99.90
15111;DHT22;7656;51.954;7.998;2024-03-06T15:55:29;13.90;99.90
15111;DHT22;7656;51.954;7.998;2024-03-06T15:59:51;13.70;99.90
15111;DHT22;7656;51.954;7.998;2024-03-06T16:04:12;13.70;99.90
15111;DHT22;7656;51.954;7.998;2024-03-06T16:08:34;13.30;99.90
15111;DHT22;7656;51.954;7.998;2024-03-06T16:12:57;13.40;99.90
15111;DHT22;7656;51.954;7.998;2024-03-06T16:17:18;13.10;99.90
15111;DHT22;7656;51.954;7.998;2024-03-06T16:21:40;13.00;99.90
15111;DHT22;7656;51.954;7.998;2024-03-06T16:26:01;12.80;99.90
15111;DHT22;7656;51.954;7.998;2024-03-06T16:30:22;12.80;99.90
15111;DHT22;7656;51.954;7.998;2024-03-06T16:34:44;12.70;99.90
15111;DHT22;7656;51.954;7.998;2024-03-06T16:39:05;12.40;99.90
15111;DHT22;7656;51.954;7.998;2024-03-06T16:43:26;12.30;99.90
15111;DHT22;7656;51.954;7.998;2024-03-06T16:47:47;12.10;99.90
15111;DHT22;7656;51.954;7.998;2024-03-06T16:52:09;12.00;99.90
15111;DHT22;7656;51.954;7.998;2024-03-06T16:56:32;11.80;99.90
15111;DHT22;7656;51.954;7.998;2024-03-06T17:00:53;11.50;99.90
15111;DHT22;7656;51.954;7.998;2024-03-06T17:05:14;11.40;99.90
15111;DHT22;7656;51.954;7.998;2024-03-06T17:09:36;11.20;99.90
15111;DHT22;7656;51.954;7.998;2024-03-06T17:13:57;11.10;99.90
15111;DHT22;7656;51.954;7.998;2024-03-06T17:18:20;11.00;99.90
15111;DHT22;7656;51.954;7.998;2024-03-06T17:22:42;10.90;99.90
15111;DHT22;7656;51.954;7.998;2024-03-06T17:27:03;10.60;99.90
15111;DHT22;7656;51.954;7.998;2024-03-06T17:31:24;10.20;99.90
15111;DHT22;7656;51.954;7.998;2024-03-06T17:35:46;10.10;99.90
15111;DHT22;7656;51.954;7.998;2024-03-06T17:40:08;10.10;99.90
15111;DHT22;7656;51.954;7.998;2024-03-06T17:44:31;10.00;99.90
15111;DHT22;7656;51.954;7.998;2024-03-06T17:48:53;9.90;99.90
15111;DHT22;7656;51.954;7.998;2024-03-06T17:53:14;9.90;99.90
15111;DHT22;7656;51.954;7.998;2024-03-06T17:57:35;9.70;99.90
15111;DHT22;7656;51.954;7.998;2024-03-06T18:01:56;9.50;99.90
15111;DHT22;7656;51.954;7.998;2024-03-06T18:06:18;9.40;99.90
15111;DHT22;7656;51.954;7.998;2024-03-06T18:10:39;9.40;99.90
15111;DHT22;7656;51.954;7.998;2024-03-06T18:15:00;9.30;99.90
15111;DHT22;7656;51.954;7.998;2024-03-06T18:19:21;9.10;99.90
15111;DHT22;7656;51.954;7.998;2024-03-06T18:23:42;9.00;99.90
15111;DHT22;7656;51.954;7.998;2024-03-06T18:28:03;9.00;99.90
15111;DHT22;7656;51.954;7.998;2024-03-06T18:32:25;9.00;99.90
15111;DHT22;7656;51.954;7.998;2024-03-06T18:36:46;8.90;99.90
15111;DHT22;7656;51.954;7.998;2024-03-06T18:41:08;8.90;99.90
15111;DHT22;7656;51.954;7.998;2024-03-06T18:45:29;8.90;99.90
15111;DHT22;7656;51.954;7.998;2024-03-06T18:49:50;9.00;99.90
15111;DHT22;7656;51.954;7.998;2024-03-06T18:54:11;9.00;99.90
15111;DHT22;7656;51.954;7.998;2024-03-06T18:58:32;9.10;99.90
15111;DHT22;7656;51.954;7.998;2024-03-06T19:02:54;9.10;99.90
15111;DHT22;7656;51.954;7.998;2024-03-06T19:07:15;9.10;99.90
15111;DHT22;7656;51.954;7.998;2024-03-06T19:11:39;9.20;99.90
15111;DHT22;7656;51.954;7.998;2024-03-06T19:16:00;9.20;99.90
15111;DHT22;7656;51.954;7.998;2024-03-06T19:20:22;9.30;99.90
15111;DHT22;7656;51.954;7.998;2024-03-06T19:24:43;9.30;99.90
15111;DHT22;7656;51.954;7.998;2024-03-06T19:29:06;9.30;99.90
15111;DHT22;7656;51.954;7.998;2024-03-06T19:33:28;9.30;99.90
15111;DHT22;7656;51.954;7.998;2024-03-06T19:37:50;9.30;99.90
15111;DHT22;7656;51.954;7.998;2024-03-06T19:42:11;9.20;99.90
15111;DHT22;7656;51.954;7.998;2024-03-06T19:46:33;9.10;99.90
15111;DHT22;7656;51.954;7.998;2024-03-06T19:50:54;9.10;99.90
15111;DHT22;7656;51.954;7.998;2024-03-06T19:55:16;9.10;99.90
15111;DHT22;7656;51.954;7.998;2024-03-06T19:59:38;9.10;99.90
15111;DHT22;7656;51.954;7.998;2024-03-06T20:03:59;9.10;99.90
15111;DHT22;7656;51.954;7.998;2024-03-06T20:08:21;9.00;99.90
15111;DHT22;7656;51.954;7.998;2024-03-06T20:12:42;9.00;99.90
15111;DHT22;7656;51.954;7.998;2024-03-06T20:17:04;9.00;99.90
15111;DHT22;7656;51.954;7.998;2024-03-06T20:21:25;9.00;99.90
15111;DHT22;7656;51.954;7.998;2024-03-06T20:25:47;9.10;99.90
15111;DHT22;7656;51.954;7.998;2024-03-06T20:30:10;9.10;99.90
15111;DHT22;7656;51.954;7.998;2024-03-06T20:34:31;9.20;99.90
15111;DHT22;7656;51.954;7.998;2024-03-06T20:38:55;9.20;99.90
15111;DHT22;7656;51.954;7.998;2024-03-06T20:43:16;9.30;99.90
15111;DHT22;7656;51.954;7.998;2024-03-06T20:47:41;9.30;99.90
15111;DHT22;7656;51.954;7.998;2024-03-06T20:52:03;9.30;99.90
15111;DHT22;7656;51.954;7.998;2024-03-06T20:56:27;9.30;99.90
15111;DHT22;7656;51.954;7.998;2024-03-06T21:00:48;9.30;99.90
15111;DHT22;7656;51.954;7.998;2024-03-06T21:05:11;9.30;99.90
15111;DHT22;7656;51.954;7.998;2024-03-06T21:09:32;9.30;99.90
15111;DHT22;7656;51.954;7.998;2024-03-06T21:13:53;9.20;99.90
15111;DHT22;7656;51.954;7.998;2024-03-06T21:18:14;9.20;99.90
15111;DHT22;7656;51.954;7.998;2024-03-06T21:22:35;9.20;99.90
15111;DHT22;7656;51.954;7.998;2024-03-06T21:26:57;9.10;99.90
15111;DHT22;7656;51.954;7.998;2024-03-06T21:31:18;9.10;99.90
15111;DHT22;7656;51.954;7.998;2024-03-06T21:35:46;9.20;99.90
15111;DHT22;7656;51.954;7.998;2024-03-06T21:40:10;9.20;99.90
15111;DHT22;7656;51.954;7.998;2024-03-06T21:44:35;9.30;99.90
15111;DHT22;7656;51.954;7.998;2024-03-06T21:49:03;9.20;99.90
15111;DHT22;7656;51.954;7.998;2024-03-06T21:53:27;9.20;99.90
15111;DHT22;7656;51.954;7.998;2024-03-06T21:57:49;9.10;99.90
15111;DHT22;7656;51.954;7.998;2024-03-06T22:02:16;9.10;99.90
15111;DHT22;7656;51.954;7.998;2024-03-06T22:06:44;9.00;99.90
15111;DHT22;7656;51.954;7.998;2024-03-06T22:11:07;9.00;99.90
15111;DHT22;7656;51.954;7.998;2024-03-06T22:15:33;9.00;99.90
15111;DHT22;7656;51.954;7.998;2024-03-06T22:19:57;8.90;99.90
15111;DHT22;7656;51.954;7.998;2024-03-06T22:24:20;8.80;99.90
15111;DHT22;7656;51.954;7.998;2024-03-06T22:28:43;8.90;99.90
15111;DHT22;7656;51.954;7.998;2024-03-06T22:33:06;8.90;99.90
15111;DHT22;7656;51.954;7.998;2024-03-06T22:37:30;8.90;99.90
15111;DHT22;7656;51.954;7.998;2024-03-06T22:42:00;9.00;99.90
15111;DHT22;7656;51.954;7.998;2024-03-06T22:46:25;9.10;99.90
15111;DHT22;7656;51.954;7.998;2024-03-06T22:50:48;9.00;99.90
15111;DHT22;7656;51.954;7.998;2024-03-06T22:55:11;8.80;99.90
15111;DHT22;7656;51.954;7.998;2024-03-06T22:59:40;8.70;99.90
15111;DHT22;7656;51.954;7.998;2024-03-06T23:04:10;8.50;99.90
15111;DHT22;7656;51.954;7.998;2024-03-06T23:08:33;8.20;99.90
15111;DHT22;7656;51.954;7.998;2024-03-06T23:13:02;8.10;99.90
15111;DHT22;7656;51.954;7.998;2024-03-06T23:17:28;8.10;99.90
15111;DHT22;7656;51.954;7.998;2024-03-06T23:22:18;8.00;99.90
15111;DHT22;7656;51.954;7.998;2024-03-06T23:26:49;7.90;99.90
15111;DHT22;7656;51.954;7.998;2024-03-06T23:31:17;7.60;99.90
15111;DHT22;7656;51.954;7.998;2024-03-06T23:35:46;7.30;99.90
15111;DHT22;7656;51.954;7.998;2024-03-06T23:40:16;7.10;99.90
15111;DHT22;7656;51.954;7.998;2024-03-06T23:44:42;7.10;99.90
15111;DHT22;7656;51.954;7.998;2024-03-06T23:49:07;6.70;99.90
15111;DHT22;7656;51.954;7.998;2024-03-06T23:53:32;6.30;99.90
15111;DHT22;7656;51.954;7.998;2024-03-06T23:57:56;6.20;99.90
